createdAt,value
2022-09-05T00:01:27.837Z,56.79
2022-09-05T00:03:59.013Z,56.69
2022-09-05T00:06:46.109Z,56.88
2022-09-05T00:09:14.410Z,56.84
2022-09-05T00:11:45.777Z,56.81
2022-09-05T00:14:34.371Z,56.90
2022-09-05T00:17:22.981Z,56.94
2022-09-05T00:24:22.951Z,56.63
2022-09-05T00:24:27.147Z,56.89
2022-09-05T00:25:57.144Z,57.13
2022-09-05T00:28:30.858Z,57.17
2022-09-05T00:31:55.707Z,57.08
2022-09-05T00:34:03.065Z,57.04
2022-09-05T00:36:34.545Z,57.49
2022-09-05T00:39:05.346Z,57.02
2022-09-05T00:41:34.356Z,57.03
2022-09-05T00:44:02.196Z,57.00
2022-09-05T00:46:32.023Z,57.10
2022-09-05T00:49:08.994Z,56.91
2022-09-05T00:51:38.305Z,57.09
2022-09-05T00:54:41.066Z,57.07
2022-09-05T00:57:21.475Z,57.04
2022-09-05T01:00:01.209Z,56.97
2022-09-05T01:02:56.840Z,57.01
2022-09-05T01:05:36.977Z,57.12
2022-09-05T01:08:15.593Z,56.88
2022-09-05T01:10:47.933Z,56.89
2022-09-05T01:13:20.103Z,56.94
2022-09-05T01:15:51.553Z,56.83
2022-09-05T01:18:25.468Z,56.85
2022-09-05T01:21:13.764Z,56.77
2022-09-05T01:23:50.416Z,56.66
2022-09-05T01:26:47.314Z,56.72
2022-09-05T01:29:19.938Z,56.79
2022-09-05T01:31:56.928Z,56.78
2022-09-05T01:34:31.906Z,56.83
2022-09-05T01:37:01.130Z,56.57
2022-09-05T01:40:11.722Z,56.79
2022-09-05T01:42:31.732Z,56.66
2022-09-05T01:45:03.021Z,56.54
2022-09-05T01:47:38.135Z,56.82
2022-09-05T01:50:18.332Z,56.37
2022-09-05T01:53:03.676Z,56.48
2022-09-05T01:56:05.059Z,56.51
2022-09-05T01:58:34.029Z,56.41
2022-09-05T02:01:25.416Z,56.56
2022-09-05T02:04:08.901Z,56.49
2022-09-05T02:06:38.528Z,56.56
2022-09-05T02:09:11.756Z,56.40
2022-09-05T02:11:41.990Z,56.40
2022-09-05T02:14:12.897Z,56.32
2022-09-05T02:16:53.865Z,56.36
2022-09-05T02:19:24.016Z,56.37
2022-09-05T02:21:57.561Z,56.23
2022-09-05T02:24:27.900Z,56.12
2022-09-05T02:27:38.906Z,56.24
2022-09-05T02:30:08.662Z,56.23
2022-09-05T02:32:44.890Z,56.19
2022-09-05T02:35:17.324Z,56.25
2022-09-05T02:38:38.043Z,56.13
2022-09-05T02:45:11.605Z,56.20
2022-09-05T02:45:19.111Z,56.07
2022-09-05T02:46:20.987Z,56.11
2022-09-05T02:48:54.044Z,56.08
2022-09-05T02:57:28.840Z,55.83
2022-09-05T02:57:33.107Z,55.96
2022-09-05T02:57:38.338Z,55.98
2022-09-05T03:00:05.358Z,55.88
2022-09-05T03:02:38.324Z,55.87
2022-09-05T03:05:10.691Z,55.87
2022-09-05T03:07:48.147Z,55.78
2022-09-05T03:10:53.827Z,55.68
2022-09-05T03:13:50.153Z,55.75
2022-09-05T03:16:58.909Z,55.76
2022-09-05T03:19:47.525Z,55.77
2022-09-05T03:22:37.505Z,55.76
2022-09-05T03:25:22.290Z,55.58
2022-09-05T03:28:18.804Z,55.53
2022-09-05T03:30:56.605Z,55.63
2022-09-05T03:33:37.896Z,55.72
2022-09-05T03:36:30.706Z,55.64
2022-09-05T03:39:26.481Z,55.65
2022-09-05T03:42:02.141Z,55.48
2022-09-05T03:44:37.957Z,55.27
2022-09-05T03:47:24.368Z,55.21
2022-09-05T03:52:51.418Z,55.30
2022-09-05T03:57:12.060Z,55.28
2022-09-05T03:57:18.319Z,55.21
2022-09-05T03:59:47.425Z,55.22
2022-09-05T04:05:25.501Z,55.32
2022-09-05T04:08:14.406Z,55.36
2022-09-05T04:08:30.677Z,55.20
2022-09-05T04:10:45.583Z,55.17
2022-09-05T04:13:19.773Z,55.31
2022-09-05T04:15:48.643Z,55.13
2022-09-05T04:18:25.759Z,55.41
2022-09-05T04:21:03.446Z,55.30
2022-09-05T04:23:33.225Z,54.99
2022-09-05T04:26:12.117Z,55.15
2022-09-05T04:29:02.642Z,55.01
2022-09-05T04:31:35.979Z,55.02
2022-09-05T04:34:09.720Z,54.74
2022-09-05T04:36:37.850Z,54.74
2022-09-05T04:39:25.968Z,55.02
2022-09-05T04:41:54.661Z,54.75
2022-09-05T04:44:29.533Z,54.76
2022-09-05T04:46:58.072Z,54.63
2022-09-05T04:49:26.757Z,54.67
2022-09-05T04:52:03.527Z,54.62
2022-09-05T04:54:34.397Z,54.57
2022-09-05T04:57:14.096Z,54.56
2022-09-05T05:06:00.102Z,54.62
2022-09-05T05:06:04.779Z,54.76
2022-09-05T05:06:16.461Z,54.63
2022-09-05T05:08:16.867Z,54.32
2022-09-05T05:15:48.451Z,54.38
2022-09-05T05:18:02.615Z,54.42
2022-09-05T05:18:09.770Z,54.39
2022-09-05T05:19:30.610Z,54.35
2022-09-05T05:21:59.433Z,54.53
2022-09-05T05:24:28.684Z,54.37
2022-09-05T05:27:00.429Z,54.42
2022-09-05T05:29:32.757Z,54.74
2022-09-05T05:32:05.839Z,54.39
2022-09-05T05:34:34.521Z,54.36
2022-09-05T05:37:04.546Z,54.47
2022-09-05T05:39:32.165Z,54.56
2022-09-05T05:42:19.455Z,54.63
2022-09-05T05:44:49.086Z,54.75
2022-09-05T05:47:28.267Z,54.47
2022-09-05T05:50:05.178Z,54.50
2022-09-05T05:52:42.461Z,54.37
2022-09-05T05:55:50.783Z,54.49
2022-09-05T05:58:32.959Z,54.41
2022-09-05T06:01:52.092Z,54.51
2022-09-05T06:04:35.392Z,54.60
2022-09-05T06:07:11.322Z,54.64
2022-09-05T06:14:48.955Z,54.52
2022-09-05T06:15:02.192Z,54.46
2022-09-05T06:16:28.840Z,54.50
2022-09-05T06:19:18.151Z,54.39
2022-09-05T06:22:09.355Z,54.39
2022-09-05T06:25:40.536Z,54.43
2022-09-05T06:28:18.879Z,54.46
2022-09-05T06:30:57.139Z,54.46
2022-09-05T06:33:46.773Z,54.51
2022-09-05T06:36:23.209Z,54.56
2022-09-05T06:39:00.266Z,54.34
2022-09-05T06:41:33.717Z,54.50
2022-09-05T06:44:31.178Z,54.42
2022-09-05T06:47:22.699Z,54.52
2022-09-05T06:50:00.240Z,54.45
2022-09-05T06:53:34.143Z,54.58
2022-09-05T06:56:12.727Z,54.37
2022-09-05T06:59:21.183Z,54.70
2022-09-05T07:02:01.074Z,54.52
2022-09-05T07:05:24.708Z,54.43
2022-09-05T07:07:27.587Z,54.46
2022-09-05T07:09:58.946Z,54.29
2022-09-05T07:12:30.507Z,54.57
2022-09-05T07:15:09.332Z,54.63
2022-09-05T07:18:09.167Z,54.63
2022-09-05T07:21:17.335Z,54.47
2022-09-05T07:24:05.825Z,54.35
2022-09-05T07:26:51.861Z,54.52
2022-09-05T07:29:09.788Z,54.48
2022-09-05T07:31:38.706Z,54.52
2022-09-05T07:34:20.916Z,54.52
2022-09-05T07:36:50.585Z,54.62
2022-09-05T07:39:39.979Z,54.43
2022-09-05T07:42:09.148Z,54.56
2022-09-05T07:44:39.067Z,54.59
2022-09-05T07:47:08.209Z,54.35
2022-09-05T07:49:36.519Z,54.42
2022-09-05T07:56:49.384Z,54.62
2022-09-05T07:56:51.732Z,54.64
2022-09-05T07:57:51.674Z,54.42
2022-09-05T08:00:26.972Z,54.47
2022-09-05T08:02:58.193Z,54.33
2022-09-05T08:05:26.770Z,54.49
2022-09-05T08:08:03.845Z,54.69
2022-09-05T08:11:11.513Z,54.53
2022-09-05T08:13:23.852Z,54.61
2022-09-05T08:16:09.916Z,54.56
2022-09-05T08:18:42.663Z,54.46
2022-09-05T08:21:12.093Z,54.50
2022-09-05T08:23:49.773Z,54.54
2022-09-05T08:26:19.821Z,54.70
2022-09-05T08:28:55.458Z,54.69
2022-09-05T08:31:26.686Z,54.64
2022-09-05T08:33:54.361Z,54.70
2022-09-05T08:36:27.168Z,54.66
2022-09-05T08:38:54.764Z,54.65
2022-09-05T08:41:49.192Z,54.67
2022-09-05T08:46:44.009Z,54.74
2022-09-05T08:47:12.888Z,55.00
2022-09-05T08:49:49.829Z,54.83
2022-09-05T08:52:24.730Z,54.82
2022-09-05T08:55:04.338Z,54.96
2022-09-05T08:57:52.622Z,55.02
2022-09-05T09:00:24.416Z,55.16
2022-09-05T09:03:04.259Z,55.12
2022-09-05T09:05:58.113Z,55.17
2022-09-05T09:08:33.109Z,55.12
2022-09-05T09:11:03.244Z,55.19
2022-09-05T09:13:35.597Z,55.26
2022-09-05T09:16:06.478Z,55.19
2022-09-05T09:18:42.844Z,55.26
2022-09-05T09:21:26.150Z,55.34
2022-09-05T09:23:57.345Z,55.61
2022-09-05T09:26:28.798Z,55.34
2022-09-05T09:29:00.623Z,55.50
2022-09-05T09:31:37.442Z,55.28
2022-09-05T09:34:16.618Z,55.34
2022-09-05T09:37:02.754Z,55.40
2022-09-05T09:39:38.916Z,55.65
2022-09-05T09:42:32.413Z,55.50
2022-09-05T09:45:29.739Z,55.24
2022-09-05T09:48:12.225Z,55.49
2022-09-05T09:50:59.024Z,55.62
2022-09-05T09:53:43.150Z,55.42
2022-09-05T09:56:32.206Z,55.48
2022-09-05T09:59:21.043Z,55.55
2022-09-05T10:01:53.261Z,55.49
2022-09-05T10:07:50.260Z,55.74
2022-09-05T10:10:50.597Z,56.08
2022-09-05T10:11:44.032Z,55.99
2022-09-05T10:14:30.700Z,55.97
2022-09-05T10:17:21.257Z,56.05
2022-09-05T10:20:10.517Z,55.96
2022-09-05T10:22:49.001Z,56.15
2022-09-05T10:25:22.273Z,55.99
2022-09-05T10:28:04.885Z,56.10
2022-09-05T10:31:09.590Z,56.17
2022-09-05T10:35:16.922Z,56.02
2022-09-05T10:36:27.458Z,55.99
2022-09-05T10:39:02.980Z,55.98
2022-09-05T10:41:39.625Z,56.11
2022-09-05T10:44:07.238Z,56.12
2022-09-05T10:46:50.755Z,56.21
2022-09-05T10:49:22.518Z,56.01
2022-09-05T10:51:55.009Z,56.11
2022-09-05T10:54:38.963Z,56.03
2022-09-05T10:57:13.275Z,56.01
2022-09-05T11:02:19.091Z,56.10
2022-09-05T11:02:46.523Z,56.13
2022-09-05T11:05:20.948Z,55.98
2022-09-05T11:07:52.233Z,56.10
2022-09-05T11:10:23.278Z,56.02
2022-09-05T11:13:10.712Z,56.01
2022-09-05T11:16:03.996Z,56.09
2022-09-05T11:18:56.446Z,56.02
2022-09-05T11:21:28.487Z,56.05
2022-09-05T11:23:57.618Z,56.03
2022-09-05T11:26:32.086Z,55.96
2022-09-05T11:29:03.117Z,56.11
2022-09-05T11:33:27.187Z,56.00
2022-09-05T11:39:49.192Z,56.12
2022-09-05T11:39:51.880Z,56.06
2022-09-05T11:40:45.125Z,55.84
2022-09-05T11:44:24.890Z,56.05
2022-09-05T11:47:28.078Z,55.89
2022-09-05T11:50:10.366Z,56.00
2022-09-05T11:53:05.166Z,55.87
2022-09-05T11:55:58.348Z,55.96
2022-09-05T11:58:44.514Z,55.90
2022-09-05T12:01:41.992Z,56.14
2022-09-05T12:04:27.592Z,55.86
2022-09-05T12:07:29.889Z,55.68
2022-09-05T12:10:05.005Z,55.81
2022-09-05T12:12:41.084Z,55.79
2022-09-05T12:15:16.941Z,55.67
2022-09-05T12:17:53.107Z,55.82
2022-09-05T12:20:24.908Z,55.83
2022-09-05T12:22:54.518Z,55.76
2022-09-05T12:27:36.459Z,55.81
2022-09-05T12:29:32.961Z,55.83
2022-09-05T12:32:36.364Z,55.73
2022-09-05T12:36:04.061Z,55.77
2022-09-05T12:40:58.275Z,55.69
2022-09-05T12:41:35.077Z,55.86
2022-09-05T12:42:54.567Z,55.66
2022-09-05T12:45:37.679Z,55.53
2022-09-05T12:48:11.104Z,55.61
2022-09-05T12:50:43.277Z,55.73
2022-09-05T12:53:14.030Z,55.69
2022-09-05T12:55:44.444Z,55.69
2022-09-05T13:02:55.796Z,55.73
2022-09-05T13:03:04.849Z,55.58
2022-09-05T13:04:25.208Z,55.67
2022-09-05T13:07:01.010Z,55.54
2022-09-05T13:09:58.271Z,55.42
2022-09-05T13:14:50.670Z,55.55
2022-09-05T13:15:20.127Z,55.45
2022-09-05T13:17:53.077Z,55.43
2022-09-05T13:20:22.709Z,55.51
2022-09-05T13:22:50.913Z,55.37
2022-09-05T13:25:24.988Z,55.50
2022-09-05T13:27:57.542Z,55.47
2022-09-05T13:31:53.399Z,55.38
2022-09-05T13:37:59.534Z,55.38
2022-09-05T13:38:21.301Z,55.38
2022-09-05T13:38:56.665Z,55.53
2022-09-05T13:41:28.761Z,55.25
2022-09-05T13:44:00.473Z,55.28
2022-09-05T13:46:57.424Z,55.32
2022-09-05T13:49:31.232Z,55.27
2022-09-05T13:52:06.682Z,55.32
2022-09-05T13:54:39.238Z,55.26
2022-09-05T13:57:32.150Z,55.26
2022-09-05T14:00:28.060Z,55.17
2022-09-05T14:03:35.968Z,55.20
2022-09-05T14:06:08.624Z,55.05
2022-09-05T14:11:56.378Z,55.10
2022-09-05T14:20:35.494Z,55.08
2022-09-05T14:23:07.432Z,55.05
2022-09-05T14:25:36.333Z,54.98
2022-09-05T14:28:04.372Z,55.45
2022-09-05T14:33:08.111Z,55.42
2022-09-05T14:37:53.652Z,55.56
2022-09-05T14:38:01.042Z,55.31
2022-09-05T14:39:58.426Z,55.70
2022-09-05T14:42:36.124Z,55.63
2022-09-05T14:45:25.142Z,55.78
2022-09-05T14:48:02.524Z,56.17
2022-09-05T14:50:48.158Z,56.20
2022-09-05T14:57:13.601Z,56.40
2022-09-05T15:02:50.549Z,56.27
2022-09-05T15:02:58.246Z,56.38
2022-09-05T15:04:49.933Z,56.50
2022-09-05T15:07:20.818Z,56.44
2022-09-05T15:12:14.552Z,56.50
2022-09-05T15:12:49.344Z,56.32
2022-09-05T15:15:22.804Z,56.40
2022-09-05T15:17:52.504Z,56.54
2022-09-05T15:20:36.035Z,56.53
2022-09-05T15:23:16.102Z,56.53
2022-09-05T15:25:47.023Z,56.46
2022-09-05T15:28:19.758Z,56.38
2022-09-05T15:30:56.473Z,56.51
2022-09-05T15:33:25.916Z,56.29
2022-09-05T15:35:55.250Z,56.59
2022-09-05T15:38:29.400Z,56.55
2022-09-05T15:41:11.227Z,56.58
2022-09-05T15:43:40.612Z,56.59
2022-09-05T15:46:08.463Z,56.59
2022-09-05T15:48:36.254Z,56.58
2022-09-05T15:51:11.912Z,56.55
2022-09-05T15:53:40.452Z,56.55
2022-09-05T15:56:20.407Z,56.42
2022-09-05T15:58:53.905Z,56.57
2022-09-05T16:01:48.520Z,56.68
2022-09-05T16:06:53.843Z,56.72
2022-09-05T16:10:41.286Z,56.46
2022-09-05T16:10:46.663Z,56.51
2022-09-05T16:12:41.859Z,56.31
2022-09-05T16:16:35.291Z,56.45
2022-09-05T16:23:25.850Z,56.40
2022-09-05T16:23:27.596Z,56.52
2022-09-05T16:23:42.851Z,56.53
2022-09-05T16:26:11.772Z,56.37
2022-09-05T16:28:41.733Z,56.57
2022-09-05T16:31:13.093Z,56.68
2022-09-05T16:33:40.684Z,56.95
2022-09-05T16:36:15.511Z,57.20
2022-09-05T16:38:49.751Z,56.78
2022-09-05T16:41:24.129Z,56.51
2022-09-05T16:43:54.191Z,56.63
2022-09-05T16:46:23.531Z,56.55
2022-09-05T16:48:55.263Z,56.58
2022-09-05T16:51:35.175Z,56.46
2022-09-05T16:54:10.309Z,56.20
2022-09-05T16:56:41.087Z,56.19
2022-09-05T16:59:10.488Z,55.58
2022-09-05T17:01:48.693Z,55.35
2022-09-05T17:04:25.826Z,55.05
2022-09-05T17:06:56.367Z,54.72
2022-09-05T17:09:26.589Z,54.53
2022-09-05T17:12:00.536Z,54.51
2022-09-05T17:14:34.006Z,54.20
2022-09-05T17:17:19.652Z,53.96
2022-09-05T17:20:06.031Z,53.56
2022-09-05T17:24:56.709Z,53.31
2022-09-05T17:29:26.431Z,53.35
2022-09-05T17:29:27.751Z,53.04
2022-09-05T17:34:48.286Z,52.94
2022-09-05T17:38:02.973Z,52.88
2022-09-05T17:41:17.685Z,52.78
2022-09-05T17:43:47.344Z,52.43
2022-09-05T17:46:19.201Z,52.61
2022-09-05T17:49:19.419Z,52.23
2022-09-05T17:52:28.073Z,52.44
2022-09-05T17:54:56.267Z,52.31
2022-09-05T17:57:45.152Z,52.09
2022-09-05T18:00:58.306Z,52.00
2022-09-05T18:03:55.620Z,51.92
2022-09-05T18:06:52.783Z,51.84
2022-09-05T18:10:11.927Z,51.68
2022-09-05T18:13:12.723Z,51.74
2022-09-05T18:16:11.688Z,51.91
2022-09-05T18:19:28.941Z,51.81
2022-09-05T18:21:48.311Z,51.59
2022-09-05T18:24:17.742Z,51.42
2022-09-05T18:26:54.085Z,51.46
2022-09-05T18:29:58.913Z,51.35
2022-09-05T18:32:38.939Z,51.70
2022-09-05T18:35:36.659Z,51.54
2022-09-05T18:38:51.909Z,51.61
2022-09-05T18:41:18.251Z,51.54
2022-09-05T18:44:13.266Z,51.49
2022-09-05T18:46:49.996Z,51.48
2022-09-05T18:50:23.785Z,51.10
2022-09-05T18:52:17.217Z,51.24
2022-09-05T18:55:31.634Z,51.58
2022-09-05T18:57:39.329Z,51.30
2022-09-05T19:00:10.118Z,51.37
2022-09-05T19:02:50.496Z,51.33
2022-09-05T19:05:36.705Z,51.46
2022-09-05T19:08:04.780Z,51.61
2022-09-05T19:10:35.882Z,51.92
2022-09-05T19:13:10.299Z,52.07
2022-09-05T19:15:48.145Z,52.00
2022-09-05T19:18:26.567Z,51.95
2022-09-05T19:21:12.358Z,51.86
2022-09-05T19:23:49.641Z,52.11
2022-09-05T19:26:17.369Z,52.01
2022-09-05T19:36:47.283Z,52.32
2022-09-05T19:36:50.318Z,52.01
2022-09-05T19:37:13.759Z,52.22
2022-09-05T19:37:30.075Z,52.29
2022-09-05T19:45:48.943Z,52.29
2022-09-05T19:47:34.473Z,52.08
2022-09-05T19:47:57.819Z,52.28
2022-09-05T19:48:29.306Z,52.50
2022-09-05T19:51:17.523Z,52.24
2022-09-05T19:53:46.856Z,52.19
2022-09-05T19:56:14.612Z,52.19
2022-09-05T19:58:42.671Z,52.28
2022-09-05T20:01:14.484Z,52.31
2022-09-05T20:03:43.236Z,52.33
2022-09-05T20:06:29.429Z,52.35
2022-09-05T20:09:15.296Z,52.61
2022-09-05T20:11:46.812Z,52.41
2022-09-05T20:14:19.155Z,52.47
2022-09-05T20:16:49.568Z,52.63
2022-09-05T20:19:29.198Z,52.39
2022-09-05T20:22:05.481Z,52.51
2022-09-05T20:24:48.653Z,52.69
2022-09-05T20:27:17.028Z,52.62
2022-09-05T20:29:54.771Z,52.58
2022-09-05T20:32:38.752Z,53.00
2022-09-05T20:40:09.110Z,52.97
2022-09-05T20:43:14.516Z,52.83
2022-09-05T20:43:22.633Z,53.04
2022-09-05T20:43:55.866Z,53.02
2022-09-05T20:51:33.246Z,53.04
2022-09-05T20:54:08.653Z,53.20
2022-09-05T20:54:16.806Z,53.18
2022-09-05T20:55:38.523Z,53.41
2022-09-05T20:58:09.409Z,53.38
2022-09-05T21:00:37.527Z,53.44
2022-09-05T21:03:08.650Z,53.48
2022-09-05T21:05:38.739Z,53.48
2022-09-05T21:08:17.193Z,53.75
2022-09-05T21:10:55.051Z,53.61
2022-09-05T21:13:25.319Z,53.60
2022-09-05T21:15:54.342Z,53.67
2022-09-05T21:18:23.210Z,53.60
2022-09-05T21:20:55.101Z,53.78
2022-09-05T21:23:27.561Z,53.83
2022-09-05T21:25:57.561Z,53.76
2022-09-05T21:28:36.841Z,53.72
2022-09-05T21:31:10.588Z,53.71
2022-09-05T21:33:45.718Z,53.98
2022-09-05T21:36:13.772Z,53.85
2022-09-05T21:38:42.310Z,53.87
2022-09-05T21:41:15.975Z,53.73
2022-09-05T21:47:39.456Z,54.05
2022-09-05T21:47:39.511Z,53.80
2022-09-05T21:49:21.152Z,54.00
2022-09-05T21:51:50.210Z,54.02
2022-09-05T21:59:14.753Z,53.96
2022-09-05T21:59:18.802Z,54.08
2022-09-05T22:00:07.097Z,54.13
2022-09-05T22:02:38.790Z,54.05
2022-09-05T22:05:06.996Z,54.17
2022-09-05T22:07:35.764Z,54.09
2022-09-05T22:10:04.536Z,54.18
2022-09-05T22:12:36.709Z,54.06
2022-09-05T22:15:26.350Z,54.10
2022-09-05T22:17:54.150Z,54.09
2022-09-05T22:20:26.063Z,53.91
2022-09-05T22:22:56.448Z,54.15
2022-09-05T22:25:28.063Z,54.07
2022-09-05T22:27:59.733Z,54.22
2022-09-05T22:30:28.556Z,53.96
2022-09-05T22:32:56.236Z,54.13
2022-09-05T22:35:28.431Z,53.92
2022-09-05T22:38:01.007Z,54.04
2022-09-05T22:40:29.992Z,54.21
2022-09-05T22:42:59.577Z,54.12
2022-09-05T22:45:27.369Z,54.02
2022-09-05T22:47:55.085Z,54.17
2022-09-05T22:50:22.742Z,54.33
2022-09-05T22:52:50.372Z,54.12
2022-09-05T22:55:18.029Z,54.39
2022-09-05T22:57:45.765Z,54.19
2022-09-05T23:00:15.592Z,54.19
2022-09-05T23:02:43.241Z,54.39
2022-09-05T23:05:11.108Z,54.12
2022-09-05T23:07:38.857Z,54.27
2022-09-05T23:10:07.138Z,54.19
2022-09-05T23:12:37.905Z,54.27
2022-09-05T23:15:06.322Z,53.92
2022-09-05T23:17:35.360Z,54.40
2022-09-05T23:20:03.707Z,54.18
2022-09-05T23:22:31.358Z,54.18
2022-09-05T23:24:59.046Z,54.08
2022-09-05T23:27:26.749Z,54.50
2022-09-05T23:29:54.364Z,54.37
2022-09-05T23:32:22.010Z,54.38
2022-09-05T23:34:50.997Z,54.32
2022-09-05T23:37:18.635Z,54.44
2022-09-05T23:39:46.365Z,54.25
2022-09-05T23:42:14.081Z,54.15
2022-09-05T23:44:42.026Z,54.19
2022-09-05T23:47:09.722Z,54.19
2022-09-05T23:49:37.370Z,54.25
2022-09-05T23:52:06.471Z,54.19
2022-09-05T23:54:34.188Z,54.26
2022-09-05T23:57:01.845Z,54.17
2022-09-05T23:59:29.900Z,54.30
